map of RJA home
RJA - Airport
Location
City:  Rajahmundry, Andhra Pradesh, India
ICAO:VORY
IATA:RJA

Details
Type:Airport (Aerodrome, Airfield)
Latitude:1706'37"N (17.110361)
Longitude:8149'06"E (81.818208)
Datum:WGS 1984
Elevation:151 ft (46 m)
Variation:0.76W (WMM2015v2 magnetic declination)
0.01 annual change
Runways:1
Longest:5710 × 150 ft (1740 × 45.5 m), paved

Time
Time Zone:UTC+5:30
Local Time:

Weather
METAR:VORY 041400Z 10006KT 6000 NSC 24/16 Q1017 NOSIG

Related Locations
Nearby:
Farthest:IPC: 11441 mi / 18413 km
Easter Island (Isla de Pascua, Rapa Nui) [Mataveri Intl], VS, CL

Find:

   beyond  
but within

Other Information
Maps:
NOTAMs:
Links:
Sources:

  
  • flag of India
  

Sectional Chart

Flight Planning
at skyvector.com

Satellite Image

Google Maps Satellite view

 

Copyright © 2004-2019 Karl L. Swartz. All rights reserved.
The Great Circle Mapper name and logo are trademarks of the Great Circle Mapper.
All other trademarks mentioned herein belong to their respective owners.
Please see credits for attibutions and further copyright information.

  Follow gcmap on Facebook Follow gcmap on Twitter GCmap on LinkedIn

hCard Microformat

Geo Microformat